sensor_id;sensor_type;location;lat;lon;timestamp;temperature;humidity
7646;DHT22;3864;48.180;14.178;2022-08-25T00:01:48;15.10;99.90
7646;DHT22;3864;48.180;14.178;2022-08-25T00:04:16;15.10;99.90
7646;DHT22;3864;48.180;14.178;2022-08-25T00:06:46;15.10;99.90
7646;DHT22;3864;48.180;14.178;2022-08-25T00:09:16;15.20;99.90
7646;DHT22;3864;48.180;14.178;2022-08-25T00:11:45;15.30;99.90
7646;DHT22;3864;48.180;14.178;2022-08-25T00:14:15;15.40;99.90
7646;DHT22;3864;48.180;14.178;2022-08-25T00:16:43;15.50;99.90
7646;DHT22;3864;48.180;14.178;2022-08-25T00:19:13;15.60;99.90
7646;DHT22;3864;48.180;14.178;2022-08-25T00:21:41;15.60;99.90
7646;DHT22;3864;48.180;14.178;2022-08-25T00:24:12;15.50;99.90
7646;DHT22;3864;48.180;14.178;2022-08-25T00:26:44;15.40;99.90
7646;DHT22;3864;48.180;14.178;2022-08-25T00:29:12;15.30;99.90
7646;DHT22;3864;48.180;14.178;2022-08-25T00:31:40;15.20;99.90
7646;DHT22;3864;48.180;14.178;2022-08-25T00:34:10;15.20;99.90
7646;DHT22;3864;48.180;14.178;2022-08-25T00:36:39;15.10;99.90
7646;DHT22;3864;48.180;14.178;2022-08-25T00:39:08;15.10;99.90
7646;DHT22;3864;48.180;14.178;2022-08-25T00:41:40;15.00;99.90
7646;DHT22;3864;48.180;14.178;2022-08-25T00:44:09;15.00;99.90
7646;DHT22;3864;48.180;14.178;2022-08-25T00:46:43;15.10;99.90
7646;DHT22;3864;48.180;14.178;2022-08-25T00:49:15;15.10;99.90
7646;DHT22;3864;48.180;14.178;2022-08-25T00:51:48;15.10;99.90
7646;DHT22;3864;48.180;14.178;2022-08-25T00:54:18;15.00;99.90
7646;DHT22;3864;48.180;14.178;2022-08-25T00:56:49;15.00;99.90
7646;DHT22;3864;48.180;14.178;2022-08-25T00:59:18;14.90;99.90
7646;DHT22;3864;48.180;14.178;2022-08-25T01:01:46;14.90;99.90
7646;DHT22;3864;48.180;14.178;2022-08-25T01:04:14;15.00;99.90
7646;DHT22;3864;48.180;14.178;2022-08-25T01:06:43;14.90;99.90
7646;DHT22;3864;48.180;14.178;2022-08-25T01:09:12;15.00;99.90
7646;DHT22;3864;48.180;14.178;2022-08-25T01:11:41;15.00;99.90
7646;DHT22;3864;48.180;14.178;2022-08-25T01:14:14;14.90;99.90
7646;DHT22;3864;48.180;14.178;2022-08-25T01:16:42;14.80;99.90
7646;DHT22;3864;48.180;14.178;2022-08-25T01:19:13;14.80;99.90
7646;DHT22;3864;48.180;14.178;2022-08-25T01:21:44;14.70;99.90
7646;DHT22;3864;48.180;14.178;2022-08-25T01:24:21;14.60;99.90
7646;DHT22;3864;48.180;14.178;2022-08-25T01:26:50;14.60;99.90
7646;DHT22;3864;48.180;14.178;2022-08-25T01:29:17;14.50;99.90
7646;DHT22;3864;48.180;14.178;2022-08-25T01:31:52;14.50;99.90
7646;DHT22;3864;48.180;14.178;2022-08-25T01:34:21;14.50;99.90
7646;DHT22;3864;48.180;14.178;2022-08-25T01:36:50;14.50;99.90
7646;DHT22;3864;48.180;14.178;2022-08-25T01:39:17;14.40;99.90
7646;DHT22;3864;48.180;14.178;2022-08-25T01:41:58;14.50;99.90
7646;DHT22;3864;48.180;14.178;2022-08-25T01:44:29;14.60;99.90
7646;DHT22;3864;48.180;14.178;2022-08-25T01:46:57;14.70;99.90
7646;DHT22;3864;48.180;14.178;2022-08-25T01:49:25;14.80;99.90
7646;DHT22;3864;48.180;14.178;2022-08-25T01:51:56;14.80;99.90
7646;DHT22;3864;48.180;14.178;2022-08-25T01:54:26;14.90;99.90
7646;DHT22;3864;48.180;14.178;2022-08-25T01:56:53;14.90;99.90
7646;DHT22;3864;48.180;14.178;2022-08-25T01:59:21;14.90;99.90
7646;DHT22;3864;48.180;14.178;2022-08-25T02:01:49;14.90;99.90
7646;DHT22;3864;48.180;14.178;2022-08-25T02:04:16;14.80;99.90
7646;DHT22;3864;48.180;14.178;2022-08-25T02:06:44;14.70;99.90
7646;DHT22;3864;48.180;14.178;2022-08-25T02:09:15;14.70;99.90
7646;DHT22;3864;48.180;14.178;2022-08-25T02:11:44;14.70;99.90
7646;DHT22;3864;48.180;14.178;2022-08-25T02:14:13;14.70;99.90
7646;DHT22;3864;48.180;14.178;2022-08-25T02:16:45;14.70;99.90
7646;DHT22;3864;48.180;14.178;2022-08-25T02:19:14;14.70;99.90
7646;DHT22;3864;48.180;14.178;2022-08-25T02:21:42;14.70;99.90
7646;DHT22;3864;48.180;14.178;2022-08-25T02:24:10;14.70;99.90
7646;DHT22;3864;48.180;14.178;2022-08-25T02:26:41;14.60;99.90
7646;DHT22;3864;48.180;14.178;2022-08-25T02:29:09;14.60;99.90
7646;DHT22;3864;48.180;14.178;2022-08-25T02:31:36;14.50;99.90
7646;DHT22;3864;48.180;14.178;2022-08-25T02:34:04;14.50;99.90
7646;DHT22;3864;48.180;14.178;2022-08-25T02:36:32;14.40;99.90
7646;DHT22;3864;48.180;14.178;2022-08-25T02:39:00;14.40;99.90
7646;DHT22;3864;48.180;14.178;2022-08-25T02:41:28;14.40;99.90
7646;DHT22;3864;48.180;14.178;2022-08-25T02:43:57;14.40;99.90
7646;DHT22;3864;48.180;14.178;2022-08-25T02:46:25;14.40;99.90
7646;DHT22;3864;48.180;14.178;2022-08-25T02:48:53;14.30;99.90
7646;DHT22;3864;48.180;14.178;2022-08-25T02:51:23;14.20;99.90
7646;DHT22;3864;48.180;14.178;2022-08-25T02:53:52;14.20;99.90
7646;DHT22;3864;48.180;14.178;2022-08-25T02:56:20;14.10;99.90
7646;DHT22;3864;48.180;14.178;2022-08-25T02:58:47;14.10;99.90
7646;DHT22;3864;48.180;14.178;2022-08-25T03:01:16;14.10;99.90
7646;DHT22;3864;48.180;14.178;2022-08-25T03:03:45;14.10;99.90
7646;DHT22;3864;48.180;14.178;2022-08-25T03:06:15;14.20;99.90
7646;DHT22;3864;48.180;14.178;2022-08-25T03:08:43;14.20;99.90
7646;DHT22;3864;48.180;14.178;2022-08-25T03:11:10;14.10;99.90
7646;DHT22;3864;48.180;14.178;2022-08-25T03:13:39;14.10;99.90
7646;DHT22;3864;48.180;14.178;2022-08-25T03:16:07;14.10;99.90
7646;DHT22;3864;48.180;14.178;2022-08-25T03:18:37;14.10;99.90
7646;DHT22;3864;48.180;14.178;2022-08-25T03:21:05;14.00;99.90
7646;DHT22;3864;48.180;14.178;2022-08-25T03:23:32;14.10;99.90
7646;DHT22;3864;48.180;14.178;2022-08-25T03:25:59;14.10;99.90
7646;DHT22;3864;48.180;14.178;2022-08-25T03:28:44;14.10;99.90
7646;DHT22;3864;48.180;14.178;2022-08-25T03:31:11;14.20;99.90
7646;DHT22;3864;48.180;14.178;2022-08-25T03:33:40;14.10;99.90
7646;DHT22;3864;48.180;14.178;2022-08-25T03:36:08;14.10;99.90
7646;DHT22;3864;48.180;14.178;2022-08-25T03:38:37;14.00;99.90
7646;DHT22;3864;48.180;14.178;2022-08-25T03:41:11;14.00;99.90
7646;DHT22;3864;48.180;14.178;2022-08-25T03:43:40;14.00;99.90
7646;DHT22;3864;48.180;14.178;2022-08-25T03:46:07;13.90;99.90
7646;DHT22;3864;48.180;14.178;2022-08-25T03:48:35;14.00;99.90
7646;DHT22;3864;48.180;14.178;2022-08-25T03:51:05;14.00;99.90
7646;DHT22;3864;48.180;14.178;2022-08-25T03:53:32;14.00;99.90
7646;DHT22;3864;48.180;14.178;2022-08-25T03:55:59;13.90;99.90
7646;DHT22;3864;48.180;14.178;2022-08-25T03:58:27;13.90;99.90
7646;DHT22;3864;48.180;14.178;2022-08-25T04:00:54;13.90;99.90
7646;DHT22;3864;48.180;14.178;2022-08-25T04:03:24;14.10;99.90
7646;DHT22;3864;48.180;14.178;2022-08-25T04:05:52;14.20;99.90
7646;DHT22;3864;48.180;14.178;2022-08-25T04:08:21;14.20;99.90
7646;DHT22;3864;48.180;14.178;2022-08-25T04:10:48;14.20;99.90
7646;DHT22;3864;48.180;14.178;2022-08-25T04:13:15;14.10;99.90
7646;DHT22;3864;48.180;14.178;2022-08-25T04:15:44;14.00;99.90
7646;DHT22;3864;48.180;14.178;2022-08-25T04:18:11;14.00;99.90
7646;DHT22;3864;48.180;14.178;2022-08-25T04:20:39;14.00;99.90
7646;DHT22;3864;48.180;14.178;2022-08-25T04:23:07;14.00;99.90
7646;DHT22;3864;48.180;14.178;2022-08-25T04:25:39;14.00;99.90
7646;DHT22;3864;48.180;14.178;2022-08-25T04:28:07;13.90;99.90
7646;DHT22;3864;48.180;14.178;2022-08-25T04:30:35;14.00;99.90
7646;DHT22;3864;48.180;14.178;2022-08-25T04:33:02;14.10;99.90
7646;DHT22;3864;48.180;14.178;2022-08-25T04:35:30;14.20;99.90
7646;DHT22;3864;48.180;14.178;2022-08-25T04:37:57;14.20;99.90
7646;DHT22;3864;48.180;14.178;2022-08-25T04:40:25;14.30;99.90
7646;DHT22;3864;48.180;14.178;2022-08-25T04:42:54;14.40;99.90
7646;DHT22;3864;48.180;14.178;2022-08-25T04:45:21;14.60;99.90
7646;DHT22;3864;48.180;14.178;2022-08-25T04:47:49;14.60;99.90
7646;DHT22;3864;48.180;14.178;2022-08-25T04:50:17;14.70;99.90
7646;DHT22;3864;48.180;14.178;2022-08-25T04:52:44;14.80;99.90
7646;DHT22;3864;48.180;14.178;2022-08-25T04:55:11;14.80;99.90
7646;DHT22;3864;48.180;14.178;2022-08-25T04:57:39;14.90;99.90
7646;DHT22;3864;48.180;14.178;2022-08-25T05:00:10;14.90;99.90
7646;DHT22;3864;48.180;14.178;2022-08-25T05:02:37;15.00;99.90
7646;DHT22;3864;48.180;14.178;2022-08-25T05:05:05;15.10;99.90
7646;DHT22;3864;48.180;14.178;2022-08-25T05:07:33;15.20;99.90
7646;DHT22;3864;48.180;14.178;2022-08-25T05:10:00;15.30;99.90
7646;DHT22;3864;48.180;14.178;2022-08-25T05:12:28;15.40;99.90
7646;DHT22;3864;48.180;14.178;2022-08-25T05:14:56;15.60;99.90
7646;DHT22;3864;48.180;14.178;2022-08-25T05:17:45;15.80;99.90
7646;DHT22;3864;48.180;14.178;2022-08-25T05:20:13;15.90;99.90
7646;DHT22;3864;48.180;14.178;2022-08-25T05:22:43;16.00;99.90
7646;DHT22;3864;48.180;14.178;2022-08-25T05:25:12;16.10;99.90
7646;DHT22;3864;48.180;14.178;2022-08-25T05:27:41;16.20;99.90
7646;DHT22;3864;48.180;14.178;2022-08-25T05:30:10;16.40;99.90
7646;DHT22;3864;48.180;14.178;2022-08-25T05:32:38;16.60;99.90
7646;DHT22;3864;48.180;14.178;2022-08-25T05:35:07;16.70;99.90
7646;DHT22;3864;48.180;14.178;2022-08-25T05:37:35;16.80;99.90
7646;DHT22;3864;48.180;14.178;2022-08-25T05:40:04;16.80;99.90
7646;DHT22;3864;48.180;14.178;2022-08-25T05:44:59;16.70;99.90
7646;DHT22;3864;48.180;14.178;2022-08-25T05:47:27;16.80;99.90
7646;DHT22;3864;48.180;14.178;2022-08-25T05:49:54;16.70;99.90
7646;DHT22;3864;48.180;14.178;2022-08-25T05:52:25;16.80;99.90
7646;DHT22;3864;48.180;14.178;2022-08-25T05:54:52;16.90;99.90
7646;DHT22;3864;48.180;14.178;2022-08-25T05:57:20;16.90;99.90
7646;DHT22;3864;48.180;14.178;2022-08-25T05:59:48;17.00;99.90
7646;DHT22;3864;48.180;14.178;2022-08-25T06:02:15;17.00;99.90
7646;DHT22;3864;48.180;14.178;2022-08-25T06:04:59;17.00;99.90
7646;DHT22;3864;48.180;14.178;2022-08-25T06:07:28;17.10;99.90
7646;DHT22;3864;48.180;14.178;2022-08-25T06:09:56;17.10;99.90
7646;DHT22;3864;48.180;14.178;2022-08-25T06:12:23;17.10;99.90
7646;DHT22;3864;48.180;14.178;2022-08-25T06:14:51;17.10;99.90
7646;DHT22;3864;48.180;14.178;2022-08-25T06:17:18;17.20;99.90
7646;DHT22;3864;48.180;14.178;2022-08-25T06:19:47;17.40;99.90
7646;DHT22;3864;48.180;14.178;2022-08-25T06:22:14;17.50;99.90
7646;DHT22;3864;48.180;14.178;2022-08-25T06:24:43;17.60;99.90
7646;DHT22;3864;48.180;14.178;2022-08-25T06:27:11;17.90;99.90
7646;DHT22;3864;48.180;14.178;2022-08-25T06:29:38;18.30;99.90
7646;DHT22;3864;48.180;14.178;2022-08-25T06:32:06;18.60;99.90
7646;DHT22;3864;48.180;14.178;2022-08-25T06:34:33;19.00;99.90
7646;DHT22;3864;48.180;14.178;2022-08-25T06:37:01;19.40;99.90
7646;DHT22;3864;48.180;14.178;2022-08-25T06:39:28;19.60;99.90
7646;DHT22;3864;48.180;14.178;2022-08-25T06:41:57;19.90;99.90
7646;DHT22;3864;48.180;14.178;2022-08-25T06:44:25;20.20;99.90
7646;DHT22;3864;48.180;14.178;2022-08-25T06:46:54;20.50;99.90
7646;DHT22;3864;48.180;14.178;2022-08-25T06:49:22;21.30;99.90
7646;DHT22;3864;48.180;14.178;2022-08-25T06:51:52;21.80;99.90
7646;DHT22;3864;48.180;14.178;2022-08-25T06:54:20;22.00;99.90
7646;DHT22;3864;48.180;14.178;2022-08-25T06:56:47;23.10;99.90
7646;DHT22;3864;48.180;14.178;2022-08-25T06:59:16;24.70;99.90
7646;DHT22;3864;48.180;14.178;2022-08-25T07:01:44;25.20;99.90
7646;DHT22;3864;48.180;14.178;2022-08-25T07:04:11;25.40;99.90
7646;DHT22;3864;48.180;14.178;2022-08-25T07:06:39;25.30;99.90
7646;DHT22;3864;48.180;14.178;2022-08-25T07:09:08;26.60;99.90
7646;DHT22;3864;48.180;14.178;2022-08-25T07:11:36;27.80;99.90
7646;DHT22;3864;48.180;14.178;2022-08-25T07:14:05;27.40;99.90
7646;DHT22;3864;48.180;14.178;2022-08-25T07:16:35;26.80;99.90
7646;DHT22;3864;48.180;14.178;2022-08-25T07:19:03;25.80;99.90
7646;DHT22;3864;48.180;14.178;2022-08-25T07:21:32;25.00;99.90
7646;DHT22;3864;48.180;14.178;2022-08-25T07:24:00;24.30;99.90
7646;DHT22;3864;48.180;14.178;2022-08-25T07:26:30;23.70;99.90
7646;DHT22;3864;48.180;14.178;2022-08-25T07:28:59;23.10;99.90
7646;DHT22;3864;48.180;14.178;2022-08-25T07:31:27;22.80;99.90
7646;DHT22;3864;48.180;14.178;2022-08-25T07:33:55;22.50;99.90
7646;DHT22;3864;48.180;14.178;2022-08-25T07:36:40;22.30;99.90
7646;DHT22;3864;48.180;14.178;2022-08-25T07:39:07;22.10;99.90
7646;DHT22;3864;48.180;14.178;2022-08-25T07:41:37;22.00;99.90
7646;DHT22;3864;48.180;14.178;2022-08-25T07:44:06;21.80;99.90
7646;DHT22;3864;48.180;14.178;2022-08-25T07:46:34;21.60;99.90
7646;DHT22;3864;48.180;14.178;2022-08-25T07:49:04;21.50;99.90
7646;DHT22;3864;48.180;14.178;2022-08-25T07:51:31;21.80;99.90
7646;DHT22;3864;48.180;14.178;2022-08-25T07:53:59;21.90;99.90
7646;DHT22;3864;48.180;14.178;2022-08-25T07:56:27;22.20;99.90
7646;DHT22;3864;48.180;14.178;2022-08-25T07:58:54;22.70;99.90
7646;DHT22;3864;48.180;14.178;2022-08-25T08:01:23;23.30;99.90
7646;DHT22;3864;48.180;14.178;2022-08-25T08:03:50;23.90;99.90
7646;DHT22;3864;48.180;14.178;2022-08-25T08:06:21;24.20;99.90
7646;DHT22;3864;48.180;14.178;2022-08-25T08:08:50;25.00;99.90
7646;DHT22;3864;48.180;14.178;2022-08-25T08:11:19;25.80;99.90
7646;DHT22;3864;48.180;14.178;2022-08-25T08:13:48;26.30;99.90
7646;DHT22;3864;48.180;14.178;2022-08-25T08:16:17;26.30;99.90
7646;DHT22;3864;48.180;14.178;2022-08-25T08:18:46;26.60;99.90
7646;DHT22;3864;48.180;14.178;2022-08-25T08:21:15;27.20;99.90
7646;DHT22;3864;48.180;14.178;2022-08-25T08:23:45;27.50;99.90
7646;DHT22;3864;48.180;14.178;2022-08-25T08:26:13;27.40;99.90
7646;DHT22;3864;48.180;14.178;2022-08-25T08:28:41;27.10;99.90
7646;DHT22;3864;48.180;14.178;2022-08-25T08:31:08;26.70;99.90
7646;DHT22;3864;48.180;14.178;2022-08-25T08:33:35;27.20;99.90
7646;DHT22;3864;48.180;14.178;2022-08-25T08:36:05;28.20;99.90
7646;DHT22;3864;48.180;14.178;2022-08-25T08:38:33;29.10;99.90
7646;DHT22;3864;48.180;14.178;2022-08-25T08:41:11;28.70;99.90
7646;DHT22;3864;48.180;14.178;2022-08-25T08:44:05;28.60;99.90
7646;DHT22;3864;48.180;14.178;2022-08-25T08:46:42;28.20;99.90
7646;DHT22;3864;48.180;14.178;2022-08-25T08:49:16;27.90;99.90
7646;DHT22;3864;48.180;14.178;2022-08-25T08:51:54;27.60;99.90
7646;DHT22;3864;48.180;14.178;2022-08-25T08:54:24;27.50;99.90
7646;DHT22;3864;48.180;14.178;2022-08-25T08:57:01;27.40;99.90
7646;DHT22;3864;48.180;14.178;2022-08-25T08:59:36;27.70;99.90
7646;DHT22;3864;48.180;14.178;2022-08-25T09:02:12;28.00;99.90
7646;DHT22;3864;48.180;14.178;2022-08-25T09:04:43;28.50;99.90
7646;DHT22;3864;48.180;14.178;2022-08-25T09:07:16;28.60;99.90
7646;DHT22;3864;48.180;14.178;2022-08-25T09:09:45;28.80;99.90
7646;DHT22;3864;48.180;14.178;2022-08-25T09:12:19;29.70;99.90
7646;DHT22;3864;48.180;14.178;2022-08-25T09:15:01;29.60;99.90
7646;DHT22;3864;48.180;14.178;2022-08-25T09:17:48;29.30;99.90
7646;DHT22;3864;48.180;14.178;2022-08-25T09:20:32;28.90;99.90
7646;DHT22;3864;48.180;14.178;2022-08-25T09:23:14;29.20;99.90
7646;DHT22;3864;48.180;14.178;2022-08-25T09:25:51;29.50;99.90
7646;DHT22;3864;48.180;14.178;2022-08-25T09:28:29;29.50;99.90
7646;DHT22;3864;48.180;14.178;2022-08-25T09:31:00;29.40;99.90
7646;DHT22;3864;48.180;14.178;2022-08-25T09:33:30;29.00;99.90
7646;DHT22;3864;48.180;14.178;2022-08-25T09:35:57;28.60;99.90
7646;DHT22;3864;48.180;14.178;2022-08-25T09:38:26;28.50;99.90
7646;DHT22;3864;48.180;14.178;2022-08-25T09:40:57;28.60;99.90
7646;DHT22;3864;48.180;14.178;2022-08-25T09:43:32;29.00;99.90
7646;DHT22;3864;48.180;14.178;2022-08-25T09:46:00;30.70;99.90
7646;DHT22;3864;48.180;14.178;2022-08-25T09:48:30;31.50;99.90
7646;DHT22;3864;48.180;14.178;2022-08-25T09:51:11;31.60;99.90
7646;DHT22;3864;48.180;14.178;2022-08-25T09:53:50;31.90;99.90
7646;DHT22;3864;48.180;14.178;2022-08-25T09:56:19;31.40;99.90
7646;DHT22;3864;48.180;14.178;2022-08-25T09:58:49;30.60;99.90
7646;DHT22;3864;48.180;14.178;2022-08-25T10:01:19;29.90;99.90
7646;DHT22;3864;48.180;14.178;2022-08-25T10:03:56;30.10;99.90
7646;DHT22;3864;48.180;14.178;2022-08-25T10:06:25;30.30;99.90
7646;DHT22;3864;48.180;14.178;2022-08-25T10:08:58;30.10;99.90
7646;DHT22;3864;48.180;14.178;2022-08-25T10:11:36;29.40;99.90
7646;DHT22;3864;48.180;14.178;2022-08-25T10:14:19;29.00;99.90
7646;DHT22;3864;48.180;14.178;2022-08-25T10:16:48;28.80;99.90
7646;DHT22;3864;48.180;14.178;2022-08-25T10:19:24;28.60;99.90
7646;DHT22;3864;48.180;14.178;2022-08-25T10:22:05;28.60;99.90
7646;DHT22;3864;48.180;14.178;2022-08-25T10:24:34;28.60;99.90
7646;DHT22;3864;48.180;14.178;2022-08-25T10:27:11;28.80;99.90
7646;DHT22;3864;48.180;14.178;2022-08-25T10:30:06;29.20;99.90
7646;DHT22;3864;48.180;14.178;2022-08-25T10:32:47;28.90;99.90
7646;DHT22;3864;48.180;14.178;2022-08-25T10:35:19;28.50;99.90
7646;DHT22;3864;48.180;14.178;2022-08-25T10:37:59;28.30;99.90
7646;DHT22;3864;48.180;14.178;2022-08-25T10:40:34;28.20;99.90
7646;DHT22;3864;48.180;14.178;2022-08-25T10:43:05;28.00;99.90
7646;DHT22;3864;48.180;14.178;2022-08-25T10:45:39;28.00;99.90
7646;DHT22;3864;48.180;14.178;2022-08-25T10:48:22;28.00;99.90
7646;DHT22;3864;48.180;14.178;2022-08-25T10:50:57;27.80;99.90
7646;DHT22;3864;48.180;14.178;2022-08-25T10:53:28;27.70;99.90
7646;DHT22;3864;48.180;14.178;2022-08-25T10:56:07;27.80;99.90
7646;DHT22;3864;48.180;14.178;2022-08-25T10:58:55;27.70;99.90
7646;DHT22;3864;48.180;14.178;2022-08-25T11:01:43;27.80;99.90
7646;DHT22;3864;48.180;14.178;2022-08-25T11:04:15;29.10;99.90
7646;DHT22;3864;48.180;14.178;2022-08-25T11:06:49;31.10;99.90
7646;DHT22;3864;48.180;14.178;2022-08-25T11:09:22;32.40;99.90
7646;DHT22;3864;48.180;14.178;2022-08-25T11:11:54;33.30;99.90
7646;DHT22;3864;48.180;14.178;2022-08-25T11:14:27;34.90;99.90
7646;DHT22;3864;48.180;14.178;2022-08-25T11:17:02;35.80;99.90
7646;DHT22;3864;48.180;14.178;2022-08-25T11:19:33;36.40;99.90
7646;DHT22;3864;48.180;14.178;2022-08-25T11:22:11;36.10;99.90
7646;DHT22;3864;48.180;14.178;2022-08-25T11:24:47;35.60;99.90
7646;DHT22;3864;48.180;14.178;2022-08-25T11:27:21;33.70;99.90
7646;DHT22;3864;48.180;14.178;2022-08-25T11:29:57;33.20;99.90
7646;DHT22;3864;48.180;14.178;2022-08-25T11:32:28;33.00;99.90
7646;DHT22;3864;48.180;14.178;2022-08-25T11:35:01;31.60;99.90
7646;DHT22;3864;48.180;14.178;2022-08-25T11:37:29;30.50;99.90
7646;DHT22;3864;48.180;14.178;2022-08-25T11:42:59;29.40;99.90
7646;DHT22;3864;48.180;14.178;2022-08-25T11:45:50;29.30;99.90
7646;DHT22;3864;48.180;14.178;2022-08-25T11:48:31;29.20;99.90
7646;DHT22;3864;48.180;14.178;2022-08-25T11:51:03;29.40;99.90
7646;DHT22;3864;48.180;14.178;2022-08-25T11:53:34;30.00;99.90
7646;DHT22;3864;48.180;14.178;2022-08-25T11:56:04;31.40;99.90
7646;DHT22;3864;48.180;14.178;2022-08-25T11:58:41;32.40;99.90
7646;DHT22;3864;48.180;14.178;2022-08-25T12:01:11;33.40;99.90
7646;DHT22;3864;48.180;14.178;2022-08-25T12:04:15;33.90;99.90
7646;DHT22;3864;48.180;14.178;2022-08-25T12:07:18;33.80;99.90
7646;DHT22;3864;48.180;14.178;2022-08-25T12:10:18;33.80;99.90
7646;DHT22;3864;48.180;14.178;2022-08-25T12:15:59;33.20;99.90
7646;DHT22;3864;48.180;14.178;2022-08-25T12:18:41;32.60;99.90
7646;DHT22;3864;48.180;14.178;2022-08-25T12:21:31;31.80;99.90
7646;DHT22;3864;48.180;14.178;2022-08-25T12:24:08;31.20;99.90
7646;DHT22;3864;48.180;14.178;2022-08-25T12:26:41;30.70;99.90
7646;DHT22;3864;48.180;14.178;2022-08-25T12:29:13;30.30;99.90
7646;DHT22;3864;48.180;14.178;2022-08-25T12:31:51;30.40;99.90
7646;DHT22;3864;48.180;14.178;2022-08-25T12:34:40;30.30;99.90
7646;DHT22;3864;48.180;14.178;2022-08-25T12:37:14;30.00;99.90
7646;DHT22;3864;48.180;14.178;2022-08-25T12:39:56;30.10;99.90
7646;DHT22;3864;48.180;14.178;2022-08-25T12:42:30;29.80;99.90
7646;DHT22;3864;48.180;14.178;2022-08-25T12:45:11;29.50;99.90
7646;DHT22;3864;48.180;14.178;2022-08-25T12:47:45;29.20;99.90
7646;DHT22;3864;48.180;14.178;2022-08-25T12:50:36;29.20;99.90
7646;DHT22;3864;48.180;14.178;2022-08-25T12:53:14;29.20;99.90
7646;DHT22;3864;48.180;14.178;2022-08-25T12:55:47;29.10;99.90
7646;DHT22;3864;48.180;14.178;2022-08-25T12:58:17;29.30;99.90
7646;DHT22;3864;48.180;14.178;2022-08-25T13:00:55;29.50;99.90
7646;DHT22;3864;48.180;14.178;2022-08-25T13:03:52;29.70;99.90
7646;DHT22;3864;48.180;14.178;2022-08-25T13:06:34;29.60;99.90
7646;DHT22;3864;48.180;14.178;2022-08-25T13:12:30;29.50;99.90
7646;DHT22;3864;48.180;14.178;2022-08-25T13:15:00;29.40;99.90
7646;DHT22;3864;48.180;14.178;2022-08-25T13:17:30;29.20;99.90
7646;DHT22;3864;48.180;14.178;2022-08-25T13:20:12;29.00;99.90
7646;DHT22;3864;48.180;14.178;2022-08-25T13:22:42;29.00;99.90
7646;DHT22;3864;48.180;14.178;2022-08-25T13:25:18;29.10;99.90
7646;DHT22;3864;48.180;14.178;2022-08-25T13:27:50;29.00;99.90
7646;DHT22;3864;48.180;14.178;2022-08-25T13:30:24;28.80;99.90
7646;DHT22;3864;48.180;14.178;2022-08-25T13:32:52;28.70;99.90
7646;DHT22;3864;48.180;14.178;2022-08-25T13:35:23;28.60;99.90
7646;DHT22;3864;48.180;14.178;2022-08-25T13:37:52;28.30;99.90
7646;DHT22;3864;48.180;14.178;2022-08-25T13:40:24;28.20;99.90
7646;DHT22;3864;48.180;14.178;2022-08-25T13:42:55;28.10;99.90
7646;DHT22;3864;48.180;14.178;2022-08-25T13:45:25;28.10;99.90
7646;DHT22;3864;48.180;14.178;2022-08-25T13:47:54;28.10;99.90
7646;DHT22;3864;48.180;14.178;2022-08-25T13:50:31;27.90;99.90
7646;DHT22;3864;48.180;14.178;2022-08-25T13:53:03;27.90;99.90
7646;DHT22;3864;48.180;14.178;2022-08-25T13:55:36;28.10;99.90
7646;DHT22;3864;48.180;14.178;2022-08-25T13:58:05;28.10;99.90
7646;DHT22;3864;48.180;14.178;2022-08-25T14:00:42;28.00;99.90
7646;DHT22;3864;48.180;14.178;2022-08-25T14:03:29;27.90;99.90
7646;DHT22;3864;48.180;14.178;2022-08-25T14:06:06;28.00;99.90
7646;DHT22;3864;48.180;14.178;2022-08-25T14:08:36;28.20;99.90
7646;DHT22;3864;48.180;14.178;2022-08-25T14:11:11;28.20;99.90
7646;DHT22;3864;48.180;14.178;2022-08-25T14:13:40;28.10;99.90
7646;DHT22;3864;48.180;14.178;2022-08-25T14:16:12;27.90;99.90
7646;DHT22;3864;48.180;14.178;2022-08-25T14:18:46;27.60;99.90
7646;DHT22;3864;48.180;14.178;2022-08-25T14:21:14;27.40;99.90
7646;DHT22;3864;48.180;14.178;2022-08-25T14:23:42;27.20;99.90
7646;DHT22;3864;48.180;14.178;2022-08-25T14:26:12;27.00;99.90
7646;DHT22;3864;48.180;14.178;2022-08-25T14:28:39;27.00;99.90
7646;DHT22;3864;48.180;14.178;2022-08-25T14:31:09;26.80;99.90
7646;DHT22;3864;48.180;14.178;2022-08-25T14:33:40;26.80;99.90
7646;DHT22;3864;48.180;14.178;2022-08-25T14:36:08;26.90;99.90
7646;DHT22;3864;48.180;14.178;2022-08-25T14:38:36;26.80;99.90
7646;DHT22;3864;48.180;14.178;2022-08-25T14:41:04;26.70;99.90
7646;DHT22;3864;48.180;14.178;2022-08-25T14:43:34;26.50;99.90
7646;DHT22;3864;48.180;14.178;2022-08-25T14:46:07;26.30;99.90
7646;DHT22;3864;48.180;14.178;2022-08-25T14:48:40;26.10;99.90
7646;DHT22;3864;48.180;14.178;2022-08-25T14:51:12;25.90;99.90
7646;DHT22;3864;48.180;14.178;2022-08-25T14:53:42;25.90;99.90
7646;DHT22;3864;48.180;14.178;2022-08-25T14:56:09;25.80;99.90
7646;DHT22;3864;48.180;14.178;2022-08-25T14:58:39;25.70;99.90
7646;DHT22;3864;48.180;14.178;2022-08-25T15:01:07;25.70;99.90
7646;DHT22;3864;48.180;14.178;2022-08-25T15:03:41;25.50;99.90
7646;DHT22;3864;48.180;14.178;2022-08-25T15:06:11;25.30;99.90
7646;DHT22;3864;48.180;14.178;2022-08-25T15:08:39;25.20;99.90
7646;DHT22;3864;48.180;14.178;2022-08-25T15:11:24;25.10;99.90
7646;DHT22;3864;48.180;14.178;2022-08-25T15:13:53;25.10;99.90
7646;DHT22;3864;48.180;14.178;2022-08-25T15:16:23;25.00;99.90
7646;DHT22;3864;48.180;14.178;2022-08-25T15:18:52;25.00;99.90
7646;DHT22;3864;48.180;14.178;2022-08-25T15:21:20;25.00;99.90
7646;DHT22;3864;48.180;14.178;2022-08-25T15:23:48;25.00;99.90
7646;DHT22;3864;48.180;14.178;2022-08-25T15:26:16;24.90;99.90
7646;DHT22;3864;48.180;14.178;2022-08-25T15:28:46;24.90;99.90
7646;DHT22;3864;48.180;14.178;2022-08-25T15:31:17;24.80;99.90
7646;DHT22;3864;48.180;14.178;2022-08-25T15:33:44;24.70;99.90
7646;DHT22;3864;48.180;14.178;2022-08-25T15:36:14;24.70;99.90
7646;DHT22;3864;48.180;14.178;2022-08-25T15:38:43;24.70;99.90
7646;DHT22;3864;48.180;14.178;2022-08-25T15:41:11;24.80;99.90
7646;DHT22;3864;48.180;14.178;2022-08-25T15:43:39;24.80;99.90
7646;DHT22;3864;48.180;14.178;2022-08-25T15:46:08;24.80;99.90
7646;DHT22;3864;48.180;14.178;2022-08-25T15:48:40;24.80;99.90
7646;DHT22;3864;48.180;14.178;2022-08-25T15:51:09;24.80;99.90
7646;DHT22;3864;48.180;14.178;2022-08-25T15:53:36;24.70;99.90
7646;DHT22;3864;48.180;14.178;2022-08-25T15:56:05;24.60;99.90
7646;DHT22;3864;48.180;14.178;2022-08-25T15:58:33;24.40;99.90
7646;DHT22;3864;48.180;14.178;2022-08-25T16:01:01;24.30;99.90
7646;DHT22;3864;48.180;14.178;2022-08-25T16:03:35;24.20;99.90
7646;DHT22;3864;48.180;14.178;2022-08-25T16:06:04;24.10;99.90
7646;DHT22;3864;48.180;14.178;2022-08-25T16:08:32;23.90;99.90
7646;DHT22;3864;48.180;14.178;2022-08-25T16:10:59;23.80;99.90
7646;DHT22;3864;48.180;14.178;2022-08-25T16:13:29;23.60;99.90
7646;DHT22;3864;48.180;14.178;2022-08-25T16:15:58;23.50;99.90
7646;DHT22;3864;48.180;14.178;2022-08-25T16:18:26;23.30;99.90
7646;DHT22;3864;48.180;14.178;2022-08-25T16:20:54;23.20;99.90
7646;DHT22;3864;48.180;14.178;2022-08-25T16:23:23;23.10;99.90